sensor_id;sensor_type;location;lat;lon;timestamp;pressure;altitude;pressure_sealevel;temperature;humidity
40918;BME280;26644;50.248;19.032;2023-04-28T00:02:25;98524.75;;;5.84;58.33
40918;BME280;26644;50.248;19.032;2023-04-28T00:05:29;98523.59;;;5.80;58.78
40918;BME280;26644;50.248;19.032;2023-04-28T00:08:34;98533.78;;;5.84;58.54
40918;BME280;26644;50.248;19.032;2023-04-28T00:11:43;98531.84;;;5.68;58.74
40918;BME280;26644;50.248;19.032;2023-04-28T00:14:48;98527.47;;;5.67;58.14
40918;BME280;26644;50.248;19.032;2023-04-28T00:17:53;98542.03;;;5.72;57.63
40918;BME280;26644;50.248;19.032;2023-04-28T00:20:58;98540.72;;;5.75;57.29
40918;BME280;26644;50.248;19.032;2023-04-28T00:24:03;98543.34;;;5.70;57.29
40918;BME280;26644;50.248;19.032;2023-04-28T00:27:11;98537.53;;;5.66;57.14
40918;BME280;26644;50.248;19.032;2023-04-28T00:30:16;98538.84;;;5.64;58.12
40918;BME280;26644;50.248;19.032;2023-04-28T00:33:21;98535.47;;;5.56;56.81
40918;BME280;26644;50.248;19.032;2023-04-28T00:36:26;98545.97;;;5.65;57.54
40918;BME280;26644;50.248;19.032;2023-04-28T00:39:33;98537.38;;;5.73;58.21
40918;BME280;26644;50.248;19.032;2023-04-28T00:42:41;98537.72;;;5.76;58.31
40918;BME280;26644;50.248;19.032;2023-04-28T00:45:47;98534.25;;;5.81;58.09
40918;BME280;26644;50.248;19.032;2023-04-28T00:48:52;98517.00;;;5.75;58.33
40918;BME280;26644;50.248;19.032;2023-04-28T00:52:00;98527.41;;;5.78;58.39
40918;BME280;26644;50.248;19.032;2023-04-28T00:55:08;98536.41;;;5.79;58.19
40918;BME280;26644;50.248;19.032;2023-04-28T00:58:16;98525.44;;;5.74;58.64
40918;BME280;26644;50.248;19.032;2023-04-28T01:01:21;98528.16;;;5.74;59.12
40918;BME280;26644;50.248;19.032;2023-04-28T01:04:28;98539.72;;;5.81;59.27
40918;BME280;26644;50.248;19.032;2023-04-28T01:07:33;98545.41;;;5.80;58.70
40918;BME280;26644;50.248;19.032;2023-04-28T01:10:42;98550.03;;;5.79;58.97
40918;BME280;26644;50.248;19.032;2023-04-28T01:14:03;98529.13;;;5.68;58.95
40918;BME280;26644;50.248;19.032;2023-04-28T01:17:12;98543.34;;;5.70;59.23
40918;BME280;26644;50.248;19.032;2023-04-28T01:20:18;98522.81;;;5.50;59.68
40918;BME280;26644;50.248;19.032;2023-04-28T01:23:22;98531.13;;;5.43;60.66
40918;BME280;26644;50.248;19.032;2023-04-28T01:26:30;98523.66;;;5.22;61.23
40918;BME280;26644;50.248;19.032;2023-04-28T01:29:36;98538.91;;;5.23;61.21
40918;BME280;26644;50.248;19.032;2023-04-28T01:32:41;98530.78;;;5.11;61.47
40918;BME280;26644;50.248;19.032;2023-04-28T01:35:45;98513.91;;;4.97;61.56
40918;BME280;26644;50.248;19.032;2023-04-28T01:38:52;98526.06;;;5.06;61.75
40918;BME280;26644;50.248;19.032;2023-04-28T01:41:59;98534.38;;;5.00;61.70
40918;BME280;26644;50.248;19.032;2023-04-28T01:45:05;98532.34;;;4.95;61.98
40918;BME280;26644;50.248;19.032;2023-04-28T01:48:11;98533.66;;;4.92;62.35
40918;BME280;26644;50.248;19.032;2023-04-28T01:51:16;98536.41;;;4.81;62.64
40918;BME280;26644;50.248;19.032;2023-04-28T01:54:21;98528.50;;;4.67;62.97
40918;BME280;26644;50.248;19.032;2023-04-28T01:57:28;98519.63;;;4.48;63.54
40918;BME280;26644;50.248;19.032;2023-04-28T02:00:35;98540.06;;;4.51;64.22
40918;BME280;26644;50.248;19.032;2023-04-28T02:03:41;98536.53;;;4.50;64.46
40918;BME280;26644;50.248;19.032;2023-04-28T02:06:45;98529.78;;;4.53;64.30
40918;BME280;26644;50.248;19.032;2023-04-28T02:09:51;98534.63;;;4.51;64.63
40918;BME280;26644;50.248;19.032;2023-04-28T02:12:58;98529.44;;;4.49;64.70
40918;BME280;26644;50.248;19.032;2023-04-28T02:16:03;98515.84;;;4.37;65.01
40918;BME280;26644;50.248;19.032;2023-04-28T02:19:08;98525.06;;;4.36;65.33
40918;BME280;26644;50.248;19.032;2023-04-28T02:22:13;98524.81;;;4.38;65.49
40918;BME280;26644;50.248;19.032;2023-04-28T02:25:18;98528.50;;;4.32;65.54
40918;BME280;26644;50.248;19.032;2023-04-28T02:28:25;98526.38;;;4.34;65.66
40918;BME280;26644;50.248;19.032;2023-04-28T02:31:30;98534.66;;;4.39;65.58
40918;BME280;26644;50.248;19.032;2023-04-28T02:34:35;98514.44;;;4.35;65.28
40918;BME280;26644;50.248;19.032;2023-04-28T02:37:40;98501.66;;;4.23;65.23
40918;BME280;26644;50.248;19.032;2023-04-28T02:40:45;98494.34;;;4.12;65.68
40918;BME280;26644;50.248;19.032;2023-04-28T02:43:52;98508.41;;;4.21;65.65
40918;BME280;26644;50.248;19.032;2023-04-28T02:46:57;98507.56;;;4.20;65.96
40918;BME280;26644;50.248;19.032;2023-04-28T02:50:02;98517.84;;;4.18;65.94
40918;BME280;26644;50.248;19.032;2023-04-28T02:53:08;98502.50;;;4.00;66.30
40918;BME280;26644;50.248;19.032;2023-04-28T02:56:12;98521.28;;;4.02;66.48
40918;BME280;26644;50.248;19.032;2023-04-28T02:59:21;98510.41;;;4.02;66.35
40918;BME280;26644;50.248;19.032;2023-04-28T03:02:25;98515.84;;;4.02;66.38
40918;BME280;26644;50.248;19.032;2023-04-28T03:05:30;98510.88;;;3.99;66.27
40918;BME280;26644;50.248;19.032;2023-04-28T03:08:35;98506.38;;;3.92;66.42
40918;BME280;26644;50.248;19.032;2023-04-28T03:11:40;98508.97;;;3.87;66.81
40918;BME280;26644;50.248;19.032;2023-04-28T03:14:47;98500.44;;;3.84;66.72
40918;BME280;26644;50.248;19.032;2023-04-28T03:17:52;98503.06;;;3.78;66.62
40918;BME280;26644;50.248;19.032;2023-04-28T03:20:58;98509.06;;;3.81;66.77
40918;BME280;26644;50.248;19.032;2023-04-28T03:24:04;98501.75;;;3.81;66.58
40918;BME280;26644;50.248;19.032;2023-04-28T03:27:09;98493.09;;;3.60;67.00
40918;BME280;26644;50.248;19.032;2023-04-28T03:30:17;98499.81;;;3.58;67.37
40918;BME280;26644;50.248;19.032;2023-04-28T03:33:21;98503.00;;;3.55;67.07
40918;BME280;26644;50.248;19.032;2023-04-28T03:36:28;98498.16;;;3.57;67.27
40918;BME280;26644;50.248;19.032;2023-04-28T03:39:40;98483.50;;;3.46;67.16
40918;BME280;26644;50.248;19.032;2023-04-28T03:42:45;98495.78;;;3.49;67.09
40918;BME280;26644;50.248;19.032;2023-04-28T03:46:00;98495.75;;;3.37;67.53
40918;BME280;26644;50.248;19.032;2023-04-28T03:49:06;98494.53;;;3.33;67.41
40918;BME280;26644;50.248;19.032;2023-04-28T03:52:10;98490.78;;;3.34;67.42
40918;BME280;26644;50.248;19.032;2023-04-28T03:55:15;98472.59;;;3.34;67.11
40918;BME280;26644;50.248;19.032;2023-04-28T03:58:20;98472.06;;;3.56;66.78
40918;BME280;26644;50.248;19.032;2023-04-28T04:01:28;98493.28;;;3.89;66.09
40918;BME280;26644;50.248;19.032;2023-04-28T04:04:32;98497.75;;;4.07;65.06
40918;BME280;26644;50.248;19.032;2023-04-28T04:07:38;98500.00;;;4.34;64.45
40918;BME280;26644;50.248;19.032;2023-04-28T04:10:43;98487.00;;;4.60;63.33
40918;BME280;26644;50.248;19.032;2023-04-28T04:13:49;98508.66;;;5.07;62.02
40918;BME280;26644;50.248;19.032;2023-04-28T04:16:57;98509.06;;;5.28;61.14
40918;BME280;26644;50.248;19.032;2023-04-28T04:20:03;98507.53;;;5.49;59.90
40918;BME280;26644;50.248;19.032;2023-04-28T04:23:09;98509.19;;;5.50;58.86
40918;BME280;26644;50.248;19.032;2023-04-28T04:26:15;98521.63;;;5.92;58.59
40918;BME280;26644;50.248;19.032;2023-04-28T04:29:21;98528.00;;;6.32;58.19
40918;BME280;26644;50.248;19.032;2023-04-28T04:32:29;98512.28;;;6.78;56.67
40918;BME280;26644;50.248;19.032;2023-04-28T04:35:34;98519.47;;;7.28;55.04
40918;BME280;26644;50.248;19.032;2023-04-28T04:38:39;98513.97;;;7.51;53.12
40918;BME280;26644;50.248;19.032;2023-04-28T04:41:50;98515.16;;;7.60;52.30
40918;BME280;26644;50.248;19.032;2023-04-28T04:45:24;98530.81;;;7.65;52.82
40918;BME280;26644;50.248;19.032;2023-04-28T04:48:31;98533.28;;;7.66;52.59
40918;BME280;26644;50.248;19.032;2023-04-28T04:51:37;98538.06;;;7.54;52.67
40918;BME280;26644;50.248;19.032;2023-04-28T04:54:41;98526.66;;;7.35;53.05
40918;BME280;26644;50.248;19.032;2023-04-28T04:57:48;98521.84;;;7.20;53.41
40918;BME280;26644;50.248;19.032;2023-04-28T05:01:07;98512.72;;;7.09;53.39
40918;BME280;26644;50.248;19.032;2023-04-28T05:04:15;98530.72;;;7.10;53.71
40918;BME280;26644;50.248;19.032;2023-04-28T05:07:19;98537.53;;;7.07;53.71
40918;BME280;26644;50.248;19.032;2023-04-28T05:10:25;98532.47;;;6.99;53.94
40918;BME280;26644;50.248;19.032;2023-04-28T05:13:30;98521.13;;;7.07;53.75
40918;BME280;26644;50.248;19.032;2023-04-28T05:16:37;98532.91;;;7.08;53.69
40918;BME280;26644;50.248;19.032;2023-04-28T05:19:50;98533.78;;;7.14;53.42
40918;BME280;26644;50.248;19.032;2023-04-28T05:22:55;98536.19;;;7.32;52.97
40918;BME280;26644;50.248;19.032;2023-04-28T05:26:00;98540.22;;;7.52;52.79
40918;BME280;26644;50.248;19.032;2023-04-28T05:29:06;98534.31;;;7.87;52.11
40918;BME280;26644;50.248;19.032;2023-04-28T05:32:10;98525.88;;;8.26;51.39
40918;BME280;26644;50.248;19.032;2023-04-28T05:35:18;98537.59;;;8.59;50.10
40918;BME280;26644;50.248;19.032;2023-04-28T05:38:23;98519.09;;;8.82;48.58
40918;BME280;26644;50.248;19.032;2023-04-28T05:41:30;98542.03;;;9.14;47.92
40918;BME280;26644;50.248;19.032;2023-04-28T05:44:34;98537.47;;;9.40;46.67
40918;BME280;26644;50.248;19.032;2023-04-28T05:47:39;98529.81;;;9.47;46.55
40918;BME280;26644;50.248;19.032;2023-04-28T05:50:47;98534.81;;;9.81;46.37
40918;BME280;26644;50.248;19.032;2023-04-28T05:53:53;98526.31;;;9.88;46.03
40918;BME280;26644;50.248;19.032;2023-04-28T05:56:59;98524.72;;;10.13;45.47
40918;BME280;26644;50.248;19.032;2023-04-28T06:00:06;98546.91;;;10.26;45.27
40918;BME280;26644;50.248;19.032;2023-04-28T06:03:14;98534.28;;;10.25;44.45
40918;BME280;26644;50.248;19.032;2023-04-28T06:06:24;98531.28;;;10.06;44.84
40918;BME280;26644;50.248;19.032;2023-04-28T06:09:29;98519.47;;;9.95;45.27
40918;BME280;26644;50.248;19.032;2023-04-28T06:12:35;98533.47;;;10.09;45.31
40918;BME280;26644;50.248;19.032;2023-04-28T06:15:39;98529.63;;;10.10;45.14
40918;BME280;26644;50.248;19.032;2023-04-28T06:18:45;98534.28;;;10.31;45.24
40918;BME280;26644;50.248;19.032;2023-04-28T06:21:52;98542.25;;;10.63;44.43
40918;BME280;26644;50.248;19.032;2023-04-28T06:24:58;98541.31;;;10.99;44.09
40918;BME280;26644;50.248;19.032;2023-04-28T06:28:10;98532.75;;;11.16;43.22
40918;BME280;26644;50.248;19.032;2023-04-28T06:31:15;98545.59;;;11.36;42.58
40918;BME280;26644;50.248;19.032;2023-04-28T06:34:20;98538.97;;;11.42;41.54
40918;BME280;26644;50.248;19.032;2023-04-28T06:37:30;98534.53;;;11.51;42.01
40918;BME280;26644;50.248;19.032;2023-04-28T06:40:35;98536.47;;;11.51;41.36
40918;BME280;26644;50.248;19.032;2023-04-28T06:43:42;98526.06;;;11.42;40.63
40918;BME280;26644;50.248;19.032;2023-04-28T06:46:54;98538.47;;;11.35;40.38
40918;BME280;26644;50.248;19.032;2023-04-28T06:50:00;98538.41;;;11.45;40.67
40918;BME280;26644;50.248;19.032;2023-04-28T06:53:12;98540.56;;;11.53;39.96
40918;BME280;26644;50.248;19.032;2023-04-28T06:56:17;98538.91;;;11.57;39.83
40918;BME280;26644;50.248;19.032;2023-04-28T06:59:22;98529.16;;;11.75;39.96
40918;BME280;26644;50.248;19.032;2023-04-28T07:02:27;98534.84;;;12.29;38.78
40918;BME280;26644;50.248;19.032;2023-04-28T07:05:32;98538.47;;;12.83;36.90
40918;BME280;26644;50.248;19.032;2023-04-28T07:08:40;98535.84;;;13.65;37.29
40918;BME280;26644;50.248;19.032;2023-04-28T07:11:45;98522.88;;;14.36;34.73
40918;BME280;26644;50.248;19.032;2023-04-28T07:14:50;98524.25;;;15.14;33.44
40918;BME280;26644;50.248;19.032;2023-04-28T07:17:56;98494.78;;;15.73;32.68
40918;BME280;26644;50.248;19.032;2023-04-28T07:21:01;98533.63;;;16.50;31.52
40918;BME280;26644;50.248;19.032;2023-04-28T07:24:08;98530.44;;;16.80;29.98
40918;BME280;26644;50.248;19.032;2023-04-28T07:27:13;98526.88;;;16.88;29.77
40918;BME280;26644;50.248;19.032;2023-04-28T07:30:18;98520.50;;;16.33;29.98
40918;BME280;26644;50.248;19.032;2023-04-28T07:33:24;98523.38;;;16.73;29.85
40918;BME280;26644;50.248;19.032;2023-04-28T07:36:28;98515.38;;;16.49;29.47
40918;BME280;26644;50.248;19.032;2023-04-28T07:39:36;98512.34;;;17.40;28.30
40918;BME280;26644;50.248;19.032;2023-04-28T07:42:41;98503.44;;;18.13;27.36
40918;BME280;26644;50.248;19.032;2023-04-28T07:45:48;98517.31;;;18.31;27.10
40918;BME280;26644;50.248;19.032;2023-04-28T07:48:53;98512.19;;;18.68;26.71
40918;BME280;26644;50.248;19.032;2023-04-28T07:51:58;98503.91;;;18.59;26.12
40918;BME280;26644;50.248;19.032;2023-04-28T07:55:05;98509.06;;;18.78;25.65
40918;BME280;26644;50.248;19.032;2023-04-28T07:58:11;98503.56;;;19.08;25.74
40918;BME280;26644;50.248;19.032;2023-04-28T08:01:16;98509.69;;;19.82;25.92
40918;BME280;26644;50.248;19.032;2023-04-28T08:04:21;98504.50;;;20.35;24.56
40918;BME280;26644;50.248;19.032;2023-04-28T08:07:26;98508.91;;;20.70;23.11
40918;BME280;26644;50.248;19.032;2023-04-28T08:10:39;98508.13;;;20.82;23.53
40918;BME280;26644;50.248;19.032;2023-04-28T08:13:49;98510.47;;;20.46;22.97
40918;BME280;26644;50.248;19.032;2023-04-28T08:30:23;98486.69;;;19.43;23.89
40918;BME280;26644;50.248;19.032;2023-04-28T08:33:29;98480.72;;;18.46;23.75
40918;BME280;26644;50.248;19.032;2023-04-28T08:36:34;98482.31;;;18.56;24.28
40918;BME280;26644;50.248;19.032;2023-04-28T08:39:41;98474.50;;;18.40;24.43
40918;BME280;26644;50.248;19.032;2023-04-28T08:42:46;98486.78;;;18.22;24.35
40918;BME280;26644;50.248;19.032;2023-04-28T08:45:56;98477.63;;;17.60;24.29
40918;BME280;26644;50.248;19.032;2023-04-28T08:49:05;98440.22;;;18.01;24.53
40918;BME280;26644;50.248;19.032;2023-04-28T08:52:18;98463.59;;;18.83;24.19
40918;BME280;26644;50.248;19.032;2023-04-28T08:55:26;98470.63;;;19.10;23.89
40918;BME280;26644;50.248;19.032;2023-04-28T08:58:35;98464.22;;;19.18;23.43
40918;BME280;26644;50.248;19.032;2023-04-28T09:01:42;98466.88;;;19.87;23.44
40918;BME280;26644;50.248;19.032;2023-04-28T09:04:48;98453.47;;;20.01;22.93
40918;BME280;26644;50.248;19.032;2023-04-28T09:07:52;98459.75;;;19.56;23.41
40918;BME280;26644;50.248;19.032;2023-04-28T09:11:05;98464.47;;;19.98;23.21
40918;BME280;26644;50.248;19.032;2023-04-28T09:14:11;98443.22;;;19.93;23.70
40918;BME280;26644;50.248;19.032;2023-04-28T09:17:19;98458.13;;;20.31;23.12
40918;BME280;26644;50.248;19.032;2023-04-28T09:20:29;98442.28;;;20.56;23.67
40918;BME280;26644;50.248;19.032;2023-04-28T09:23:47;98458.38;;;21.46;22.89
40918;BME280;26644;50.248;19.032;2023-04-28T09:27:02;98444.13;;;22.04;23.14
40918;BME280;26644;50.248;19.032;2023-04-28T09:30:39;98452.03;;;22.74;22.19
40918;BME280;26644;50.248;19.032;2023-04-28T09:34:42;98416.28;;;22.68;22.14
40918;BME280;26644;50.248;19.032;2023-04-28T09:37:57;98430.34;;;21.83;22.57
40918;BME280;26644;50.248;19.032;2023-04-28T09:41:02;98436.63;;;21.39;22.90
40918;BME280;26644;50.248;19.032;2023-04-28T09:44:14;98428.16;;;21.11;23.13
40918;BME280;26644;50.248;19.032;2023-04-28T09:47:21;98429.31;;;21.22;23.64
40918;BME280;26644;50.248;19.032;2023-04-28T09:50:39;98422.03;;;20.34;23.72
40918;BME280;26644;50.248;19.032;2023-04-28T09:53:43;98422.34;;;19.99;24.62
40918;BME280;26644;50.248;19.032;2023-04-28T09:56:49;98416.38;;;20.55;23.84
40918;BME280;26644;50.248;19.032;2023-04-28T09:59:57;98411.88;;;21.13;23.75
40918;BME280;26644;50.248;19.032;2023-04-28T10:03:03;98403.16;;;21.02;23.36
40918;BME280;26644;50.248;19.032;2023-04-28T10:06:12;98388.44;;;19.97;24.16
40918;BME280;26644;50.248;19.032;2023-04-28T10:09:18;98391.75;;;19.78;25.05
40918;BME280;26644;50.248;19.032;2023-04-28T10:12:27;98392.63;;;20.24;24.70
40918;BME280;26644;50.248;19.032;2023-04-28T10:15:32;98387.34;;;21.06;23.89
40918;BME280;26644;50.248;19.032;2023-04-28T10:18:39;98385.84;;;20.96;23.42
40918;BME280;26644;50.248;19.032;2023-04-28T10:22:00;98378.47;;;20.08;24.22
40918;BME280;26644;50.248;19.032;2023-04-28T10:25:26;98363.31;;;19.51;25.04
40918;BME280;26644;50.248;19.032;2023-04-28T10:28:33;98365.97;;;19.69;25.58
40918;BME280;26644;50.248;19.032;2023-04-28T10:31:38;98374.88;;;19.96;25.26
40918;BME280;26644;50.248;19.032;2023-04-28T10:39:11;98357.69;;;19.09;25.90
40918;BME280;26644;50.248;19.032;2023-04-28T10:46:07;98353.66;;;20.03;25.12
40918;BME280;26644;50.248;19.032;2023-04-28T10:49:13;98350.44;;;20.14;24.60
40918;BME280;26644;50.248;19.032;2023-04-28T10:52:47;98344.72;;;20.10;24.14
40918;BME280;26644;50.248;19.032;2023-04-28T10:56:07;98338.59;;;20.17;24.13
40918;BME280;26644;50.248;19.032;2023-04-28T10:59:32;98318.25;;;20.16;24.51
40918;BME280;26644;50.248;19.032;2023-04-28T11:02:39;98313.38;;;20.13;24.77
40918;BME280;26644;50.248;19.032;2023-04-28T11:09:50;98310.13;;;18.81;25.92
40918;BME280;26644;50.248;19.032;2023-04-28T11:13:27;98300.56;;;18.69;26.38
40918;BME280;26644;50.248;19.032;2023-04-28T11:16:47;98295.84;;;18.22;26.50
40918;BME280;26644;50.248;19.032;2023-04-28T11:19:55;98292.88;;;17.98;26.63
40918;BME280;26644;50.248;19.032;2023-04-28T11:23:04;98297.53;;;17.41;27.24
40918;BME280;26644;50.248;19.032;2023-04-28T11:26:09;98272.75;;;17.18;27.68
40918;BME280;26644;50.248;19.032;2023-04-28T11:29:17;98292.00;;;17.06;28.13
40918;BME280;26644;50.248;19.032;2023-04-28T11:32:35;98273.25;;;16.85;28.65
40918;BME280;26644;50.248;19.032;2023-04-28T11:35:42;98283.84;;;16.74;29.19
40918;BME280;26644;50.248;19.032;2023-04-28T11:38:47;98278.59;;;16.73;28.80
40918;BME280;26644;50.248;19.032;2023-04-28T11:41:52;98265.78;;;16.37;28.48
40918;BME280;26644;50.248;19.032;2023-04-28T11:44:59;98248.66;;;16.26;28.78
40918;BME280;26644;50.248;19.032;2023-04-28T11:48:19;98268.13;;;16.52;28.98
40918;BME280;26644;50.248;19.032;2023-04-28T11:51:37;98272.41;;;16.85;29.04
40918;BME280;26644;50.248;19.032;2023-04-28T11:54:44;98257.41;;;16.77;28.70
40918;BME280;26644;50.248;19.032;2023-04-28T11:57:48;98257.41;;;16.77;27.83
40918;BME280;26644;50.248;19.032;2023-04-28T12:01:16;98263.44;;;16.79;28.27
40918;BME280;26644;50.248;19.032;2023-04-28T12:04:28;98259.69;;;16.92;28.59
40918;BME280;26644;50.248;19.032;2023-04-28T12:07:41;98250.56;;;17.09;28.86
40918;BME280;26644;50.248;19.032;2023-04-28T12:11:08;98251.69;;;17.17;28.00
40918;BME280;26644;50.248;19.032;2023-04-28T12:14:14;98238.00;;;17.12;27.57
40918;BME280;26644;50.248;19.032;2023-04-28T12:17:25;98225.91;;;16.99;28.12
40918;BME280;26644;50.248;19.032;2023-04-28T12:20:36;98233.09;;;16.91;27.74
40918;BME280;26644;50.248;19.032;2023-04-28T12:23:42;98234.09;;;16.96;27.54
40918;BME280;26644;50.248;19.032;2023-04-28T12:26:47;98236.53;;;17.06;28.51
40918;BME280;26644;50.248;19.032;2023-04-28T12:29:52;98222.19;;;16.77;27.89
40918;BME280;26644;50.248;19.032;2023-04-28T12:33:01;98205.81;;;16.41;28.02
40918;BME280;26644;50.248;19.032;2023-04-28T12:36:06;98225.06;;;16.37;28.46
40918;BME280;26644;50.248;19.032;2023-04-28T12:39:13;98211.84;;;16.43;27.78
40918;BME280;26644;50.248;19.032;2023-04-28T12:42:20;98188.22;;;16.37;28.28
40918;BME280;26644;50.248;19.032;2023-04-28T12:45:25;98196.03;;;16.43;28.40
40918;BME280;26644;50.248;19.032;2023-04-28T12:48:33;98194.44;;;16.42;27.50
40918;BME280;26644;50.248;19.032;2023-04-28T12:51:39;98194.06;;;16.35;28.37
40918;BME280;26644;50.248;19.032;2023-04-28T12:54:43;98196.03;;;16.43;28.55
40918;BME280;26644;50.248;19.032;2023-04-28T12:57:49;98187.13;;;16.55;28.92
40918;BME280;26644;50.248;19.032;2023-04-28T13:00:54;98188.91;;;16.69;28.30
40918;BME280;26644;50.248;19.032;2023-04-28T13:04:02;98191.69;;;16.69;28.36
40918;BME280;26644;50.248;19.032;2023-04-28T13:07:06;98171.97;;;16.70;28.10
40918;BME280;26644;50.248;19.032;2023-04-28T13:10:11;98155.34;;;16.70;28.32
40918;BME280;26644;50.248;19.032;2023-04-28T13:13:16;98166.41;;;16.79;28.55
40918;BME280;26644;50.248;19.032;2023-04-28T13:16:22;98156.31;;;16.66;28.63
40918;BME280;26644;50.248;19.032;2023-04-28T13:19:31;98170.34;;;16.69;28.39
40918;BME280;26644;50.248;19.032;2023-04-28T13:22:36;98146.22;;;16.61;28.24
40918;BME280;26644;50.248;19.032;2023-04-28T13:25:42;98153.38;;;16.71;28.32
40918;BME280;26644;50.248;19.032;2023-04-28T13:28:47;98145.38;;;16.78;28.12
40918;BME280;26644;50.248;19.032;2023-04-28T13:31:52;98147.16;;;16.74;28.75
40918;BME280;26644;50.248;19.032;2023-04-28T13:35:00;98137.72;;;16.66;29.19
40918;BME280;26644;50.248;19.032;2023-04-28T13:38:05;98140.81;;;16.65;28.96
40918;BME280;26644;50.248;19.032;2023-04-28T13:41:10;98149.81;;;16.70;28.76
40918;BME280;26644;50.248;19.032;2023-04-28T16:07:10;98022.25;;;17.26;29.13
40918;BME280;26644;50.248;19.032;2023-04-28T16:10:15;98026.34;;;17.20;29.33
40918;BME280;26644;50.248;19.032;2023-04-28T16:13:19;98012.22;;;17.04;29.33
40918;BME280;26644;50.248;19.032;2023-04-28T16:16:27;98022.34;;;17.00;29.44
40918;BME280;26644;50.248;19.032;2023-04-28T16:19:31;98026.25;;;16.99;29.82
40918;BME280;26644;50.248;19.032;2023-04-28T16:22:40;98024.97;;;16.97;29.85
40918;BME280;26644;50.248;19.032;2023-04-28T16:25:44;98018.78;;;17.00;29.76
40918;BME280;26644;50.248;19.032;2023-04-28T16:28:51;98027.72;;;17.05;29.98
40918;BME280;26644;50.248;19.032;2023-04-28T16:31:56;98020.34;;;17.09;29.82
40918;BME280;26644;50.248;19.032;2023-04-28T16:35:01;98014.00;;;17.09;29.92
40918;BME280;26644;50.248;19.032;2023-04-28T16:38:08;97999.84;;;17.02;29.74
40918;BME280;26644;50.248;19.032;2023-04-28T16:41:15;98009.09;;;17.06;30.10
40918;BME280;26644;50.248;19.032;2023-04-28T16:44:19;98006.84;;;16.99;30.00
40918;BME280;26644;50.248;19.032;2023-04-28T16:47:25;97984.75;;;16.82;29.95
40918;BME280;26644;50.248;19.032;2023-04-28T16:50:31;98000.41;;;16.77;30.24
40918;BME280;26644;50.248;19.032;2023-04-28T16:53:40;98003.03;;;16.74;30.17
40918;BME280;26644;50.248;19.032;2023-04-28T16:56:44;97991.03;;;16.61;nan
40918;BME280;26644;50.248;19.032;2023-04-28T16:59:50;98000.31;;;16.56;30.48
40918;BME280;26644;50.248;19.032;2023-04-28T17:02:54;97989.06;;;16.44;30.68
40918;BME280;26644;50.248;19.032;2023-04-28T17:05:59;97983.19;;;16.37;30.76
40918;BME280;26644;50.248;19.032;2023-04-28T17:09:08;97990.38;;;16.29;30.96
40918;BME280;26644;50.248;19.032;2023-04-28T17:12:14;97990.59;;;16.24;31.20
40918;BME280;26644;50.248;19.032;2023-04-28T17:15:18;97994.31;;;16.19;31.42
40918;BME280;26644;50.248;19.032;2023-04-28T17:18:24;97987.31;;;16.13;31.42
40918;BME280;26644;50.248;19.032;2023-04-28T17:21:29;97974.63;;;16.03;31.54
40918;BME280;26644;50.248;19.032;2023-04-28T17:24:37;97981.94;;;16.08;31.51
40918;BME280;26644;50.248;19.032;2023-04-28T17:27:41;97970.88;;;15.99;31.70
40918;BME280;26644;50.248;19.032;2023-04-28T17:30:47;97984.69;;;16.08;31.81
40918;BME280;26644;50.248;19.032;2023-04-28T17:33:54;97980.97;;;16.04;32.07
40918;BME280;26644;50.248;19.032;2023-04-28T17:37:00;97993.00;;;16.08;32.31
40918;BME280;26644;50.248;19.032;2023-04-28T17:40:09;97982.63;;;15.96;32.32
40918;BME280;26644;50.248;19.032;2023-04-28T17:43:15;97987.16;;;15.92;32.31
40918;BME280;26644;50.248;19.032;2023-04-28T17:46:20;98001.50;;;15.94;32.53
40918;BME280;26644;50.248;19.032;2023-04-28T17:49:26;98002.97;;;15.91;32.79
40918;BME280;26644;50.248;19.032;2023-04-28T17:52:30;97995.63;;;15.78;32.96
40918;BME280;26644;50.248;19.032;2023-04-28T17:55:38;98014.00;;;15.83;33.15
40918;BME280;26644;50.248;19.032;2023-04-28T17:58:43;98015.00;;;15.78;34.43
40918;BME280;26644;50.248;19.032;2023-04-28T18:01:48;98018.09;;;15.76;35.03
40918;BME280;26644;50.248;19.032;2023-04-28T18:04:53;98022.16;;;15.70;35.72
40918;BME280;26644;50.248;19.032;2023-04-28T18:08:00;98014.47;;;15.58;35.88
40918;BME280;26644;50.248;19.032;2023-04-28T18:11:08;98011.25;;;15.56;35.98
40918;BME280;26644;50.248;19.032;2023-04-28T18:14:13;98022.31;;;15.56;36.03
40918;BME280;26644;50.248;19.032;2023-04-28T18:17:18;98015.94;;;15.56;36.41
40918;BME280;26644;50.248;19.032;2023-04-28T18:20:24;98005.47;;;15.44;36.59
40918;BME280;26644;50.248;19.032;2023-04-28T18:23:29;98011.16;;;15.39;36.63
40918;BME280;26644;50.248;19.032;2023-04-28T18:26:37;98013.91;;;15.30;36.87
40918;BME280;26644;50.248;19.032;2023-04-28T18:29:42;98019.75;;;15.28;36.88
40918;BME280;26644;50.248;19.032;2023-04-28T18:32:47;98025.44;;;15.23;37.15
40918;BME280;26644;50.248;19.032;2023-04-28T18:35:57;98013.41;;;15.19;36.94
40918;BME280;26644;50.248;19.032;2023-04-28T18:39:06;98019.53;;;15.16;37.23
40918;BME280;26644;50.248;19.032;2023-04-28T18:42:13;98032.59;;;15.24;37.12
40918;BME280;26644;50.248;19.032;2023-04-28T18:45:18;98017.94;;;15.15;37.09
40918;BME280;26644;50.248;19.032;2023-04-28T18:48:23;98033.38;;;15.16;37.41
40918;BME280;26644;50.248;19.032;2023-04-28T18:51:28;98031.56;;;15.11;37.45
40918;BME280;26644;50.248;19.032;2023-04-28T18:54:33;98026.50;;;15.05;37.49
40918;BME280;26644;50.248;19.032;2023-04-28T18:57:41;98034.16;;;15.08;37.77
40918;BME280;26644;50.248;19.032;2023-04-28T19:00:45;98033.34;;;15.07;37.80
40918;BME280;26644;50.248;19.032;2023-04-28T19:03:51;98042.91;;;15.01;38.00
40918;BME280;26644;50.248;19.032;2023-04-28T19:06:56;98049.34;;;14.88;38.04
40918;BME280;26644;50.248;19.032;2023-04-28T19:10:01;98029.63;;;14.81;38.36
40918;BME280;26644;50.248;19.032;2023-04-28T19:13:09;98045.78;;;14.87;38.44